Pagina principale
METAR-TAF:

METAR-TAF

Aeroporti :

Sibiu, Romania

latitudine: 45-48N, longitudine: 024-09E, altezza: 443 m

Osservazione

Il bollettino è stato emesso 49 minuti fa, alle 12:30 UTC
Vento 12 kt da ovest/nord-ovest
Temperature 27°C
Umidità 42%
Pressione 1016 hPa
Visibilità 10 km o più
Poco nuvoloso ad un'altezza di 4500 ft, Cumulo congesto.

METAR: LRSB 171230Z 30012KT 9999 FEW045TCU 27/13 Q1016

Ora: 16:19 (13:19 UTC)

Previsione

Il bollettino è stato emesso 2 ore e 19 minuti fa, alle 11:00 UTC
Previsione valida dal 17 alle 12 UTC al 18 alle 12 UTC
Vento 4 kt da direzioni variabili
Visibilità 10 km o più
nessuna nube inferiore a 1500 m e nessun cumulonembo
Temporaneamente
dal 17 alle 12 UTC al 17 alle 15 UTC
Vento 10 kt da nord-ovest
Nubi sparse ad un'altezza di 4500 ft, Cumulonembo.

TAF: LRSB 171100Z 1712/1812 VRB04KT CAVOK TEMPO 1712/1715 32010KT SCT045CB

Osservazioni e previsioni meteorologiche di più di 4000 aeroporti (messaggi METAR e TAF).

Le stazioni disponibili sono rappresentate dai dischi gialli e rossi sulla carta.

Puntare il mouse per vedere il nome della stazione.

Clicca sopra per visualizzare le osservazioni e previsioni meteorologiche.

Per cambiare la mappa : fare clic sui pulsanti verdi con una croce nera per ingrandire, il pulsante verde con un trattino per diminuire, o sulla freccia verde per le mappe adiacenti.


METAR-TAF: